Time;durP1;ratioP1;P1;durP2;ratioP2;P2;SDS_P1;SDS_P2;PMS_P1;PMS_P2;Temp;Humidity;BMP_temperature;BMP_pressure;BME280_temperature;BME280_humidity;BME280_pressure;Samples;Min_cycle;Max_cycle;Signal;HPM_P1;HPM_P2
2024/01/18 00:00:36;;;;;;;15.03;8.47;;;;;;;;;;5051059;28;20208;-72
2024/01/18 00:03:02;;;;;;;14.00;8.93;;;;;;;;;;5020245;28;20259;-73
2024/01/18 00:05:28;;;;;;;16.73;9.30;;;;;;;;;;5015221;28;20285;-73
2024/01/18 00:07:54;;;;;;;14.27;8.90;;;;;;;;;;5015288;28;20171;-72
2024/01/18 00:10:26;;;;;;;16.83;9.33;;;;;;;;;;5015090;28;20199;-72
2024/01/18 00:12:52;;;;;;;14.27;9.10;;;;;;;;;;5015346;28;20180;-73
2024/01/18 00:15:18;;;;;;;16.50;8.87;;;;;;;;;;5014937;28;20184;-73
2024/01/18 00:17:44;;;;;;;18.80;9.90;;;;;;;;;;5013725;28;20197;-73
2024/01/18 00:20:10;;;;;;;16.83;9.70;;;;;;;;;;5014987;28;20175;-73
2024/01/18 00:22:36;;;;;;;17.80;9.87;;;;;;;;;;5014910;28;20166;-73
2024/01/18 00:25:02;;;;;;;16.57;10.07;;;;;;;;;;5014712;28;20210;-73
2024/01/18 00:27:28;;;;;;;19.90;9.00;;;;;;;;;;5014756;28;20171;-72
2024/01/18 00:29:54;;;;;;;17.40;9.77;;;;;;;;;;5014818;28;20220;-74
2024/01/18 00:32:23;;;;;;;16.03;9.17;;;-2.00;99.90;;;;;;5007063;28;20673;-73
2024/01/18 00:34:49;;;;;;;13.97;8.80;;;;;;;;;;5009049;28;20178;-74
2024/01/18 00:37:15;;;;;;;15.07;9.43;;;;;;;;;;5013184;28;20650;-73
2024/01/18 00:39:42;;;;;;;16.37;9.23;;;-2.00;99.90;;;;;;4994814;28;20690;-73
2024/01/18 00:42:08;;;;;;;17.00;9.30;;;;;;;;;;5014396;28;20540;-73
2024/01/18 00:44:34;;;;;;;15.50;9.30;;;;;;;;;;5013339;28;20227;-73
2024/01/18 00:47:00;;;;;;;16.20;8.63;;;;;;;;;;5016002;28;20191;-73
2024/01/18 00:49:26;;;;;;;16.13;8.70;;;;;;;;;;5016778;28;20170;-73
2024/01/18 00:51:52;;;;;;;20.60;8.63;;;;;;;;;;5017102;28;20174;-73
2024/01/18 00:54:18;;;;;;;12.53;8.03;;;;;;;;;;5015882;28;20183;-73
2024/01/18 00:56:44;;;;;;;17.60;9.67;;;;;;;;;;5015071;28;20240;-73
2024/01/18 00:59:10;;;;;;;19.20;8.93;;;;;;;;;;5014729;28;20514;-74
2024/01/18 01:01:36;;;;;;;17.43;8.33;;;;;;;;;;5019050;28;20186;-74
2024/01/18 01:04:02;;;;;;;14.77;8.33;;;;;;;;;;5054300;28;20200;-74
2024/01/18 01:06:28;;;;;;;18.90;8.47;;;;;;;;;;5054564;28;20251;-73
2024/01/18 01:08:54;;;;;;;14.50;8.63;;;;;;;;;;5054242;28;20200;-73
2024/01/18 01:11:20;;;;;;;17.30;8.80;;;;;;;;;;5053818;28;20166;-73
2024/01/18 01:13:46;;;;;;;16.67;8.60;;;;;;;;;;5052432;28;20162;-74
2024/01/18 01:16:12;;;;;;;12.87;7.97;;;;;;;;;;5035660;28;20185;-74
2024/01/18 01:18:38;;;;;;;16.63;8.77;;;;;;;;;;5054007;28;20174;-73
2024/01/18 01:21:05;;;;;;;13.90;7.97;;;;;;;;;;5036217;28;20174;-73
2024/01/18 01:23:31;;;;;;;14.70;8.40;;;;;;;;;;5053975;28;20170;-74
2024/01/18 01:25:58;;;;;;;14.73;7.57;;;;;;;;;;5053385;28;20264;-73
2024/01/18 01:28:24;;;;;;;19.43;8.80;;;;;;;;;;5053385;28;20201;-73
2024/01/18 01:30:50;;;;;;;13.97;7.90;;;;;;;;;;5053070;28;20222;-74
2024/01/18 01:33:16;;;;;;;15.00;8.77;;;;;;;;;;5034919;28;20174;-73
2024/01/18 01:35:42;;;;;;;18.03;8.70;;;;;;;;;;5052559;28;20177;-73
2024/01/18 01:38:08;;;;;;;16.43;8.63;;;;;;;;;;5035259;28;20182;-74
2024/01/18 01:40:34;;;;;;;17.00;9.03;;;;;;;;;;5052952;28;20231;-73
2024/01/18 01:43:00;;;;;;;17.30;8.67;;;;;;;;;;5035040;28;20239;-74
2024/01/18 01:45:26;;;;;;;15.27;8.13;;;;;;;;;;5035166;28;20212;-73
2024/01/18 01:47:53;;;;;;;14.03;7.63;;;;;;;;;;5053005;28;20167;-74
2024/01/18 01:50:19;;;;;;;14.07;8.40;;;;;;;;;;5053064;28;20545;-74
2024/01/18 01:52:47;;;;;;;13.73;7.83;;;-2.40;99.90;;;;;;5035163;28;20249;-74
2024/01/18 01:55:13;;;;;;;14.43;8.43;;;;;;;;;;5053562;28;20260;-75
2024/01/18 01:57:40;;;;;;;16.80;8.97;;;-2.40;99.90;;;;;;5053248;28;20219;-75
2024/01/18 02:00:06;;;;;;;16.87;8.57;;;-2.20;99.90;;;;;;5052931;28;20170;-75
2024/01/18 02:02:33;;;;;;;13.83;7.87;;;;;;;;;;5052697;28;20561;-75
2024/01/18 02:04:59;;;;;;;21.23;8.50;;;;;;;;;;5052630;28;20201;-75
2024/01/18 02:07:28;;;;;;;15.10;8.07;;;-2.70;99.90;;;;;;5035174;28;20169;-75
2024/01/18 02:09:55;;;;;;;16.03;8.30;;;-2.50;99.90;;;;;;5053083;28;20173;-74
2024/01/18 02:12:24;;;;;;;14.70;7.83;;;-2.40;99.90;;;;;;5052596;28;20547;-75
2024/01/18 02:14:50;;;;;;;16.07;8.63;;;;;;;;;;5052557;28;20674;-74
2024/01/18 02:17:16;;;;;;;17.40;9.20;;;;;;;;;;5052422;28;20634;-75
2024/01/18 02:19:42;;;;;;;18.57;9.20;;;;;;;;;;5034520;28;20205;-74
2024/01/18 02:22:10;;;;;;;18.13;9.43;;;;;;;;;;5052509;28;20212;-74
2024/01/18 02:24:46;;;;;;;16.90;8.87;;;;;;;;;;5052019;28;20216;-74
2024/01/18 02:27:12;;;;;;;15.13;8.57;;;;;;;;;;5052217;28;20211;-74
2024/01/18 02:29:38;;;;;;;14.53;8.03;;;;;;;;;;5051961;28;20188;-74
2024/01/18 02:32:04;;;;;;;16.50;9.27;;;;;;;;;;5058699;28;20189;-74
2024/01/18 02:34:30;;;;;;;16.77;8.87;;;;;;;;;;5041083;28;20177;-74
2024/01/18 02:36:56;;;;;;;16.10;8.90;;;;;;;;;;5053277;28;20197;-74
2024/01/18 02:39:22;;;;;;;18.03;9.07;;;;;;;;;;5052006;28;20196;-74
2024/01/18 02:41:48;;;;;;;14.83;8.50;;;;;;;;;;5051725;28;20178;-75
2024/01/18 02:44:15;;;;;;;21.57;8.87;;;;;;;;;;5051938;28;20197;-74
2024/01/18 02:46:41;;;;;;;14.37;8.13;;;-3.00;99.90;;;;;;5051980;28;20264;-74
2024/01/18 02:49:07;;;;;;;13.67;8.03;;;;;;;;;;5051938;28;20177;-75
2024/01/18 02:51:33;;;;;;;12.83;7.90;;;;;;;;;;5051969;28;20176;-75
2024/01/18 02:53:59;;;;;;;11.80;7.33;;;;;;;;;;5033977;28;20187;-75
2024/01/18 02:56:25;;;;;;;15.30;8.53;;;;;;;;;;5034008;28;20272;-74
2024/01/18 02:58:51;;;;;;;13.40;7.57;;;;;;;;;;5033893;28;20179;-74
2024/01/18 03:01:17;;;;;;;10.97;7.77;;;;;;;;;;5050199;28;20208;-74
2024/01/18 03:03:43;;;;;;;14.47;8.20;;;;;;;;;;5039775;28;20224;-74
2024/01/18 03:06:09;;;;;;;14.63;8.30;;;;;;;;;;5052491;28;20601;-74
2024/01/18 03:08:36;;;;;;;14.10;8.00;;;;;;;;;;5041206;28;20658;-74
2024/01/18 03:11:02;;;;;;;14.57;8.20;;;;;;;;;;5031723;28;20661;-75
2024/01/18 03:13:28;;;;;;;15.57;8.03;;;;;;;;;;5036114;28;20266;-74
2024/01/18 03:15:54;;;;;;;16.13;7.43;;;;;;;;;;5037006;28;20224;-74
2024/01/18 03:18:20;;;;;;;14.60;7.60;;;;;;;;;;5037086;28;20256;-75
2024/01/18 03:20:46;;;;;;;13.77;7.90;;;;;;;;;;5034059;28;20270;-75
2024/01/18 03:23:12;;;;;;;14.73;7.67;;;;;;;;;;5038751;28;20680;-74
2024/01/18 03:25:38;;;;;;;15.47;8.10;;;;;;;;;;5020585;28;20291;-74
2024/01/18 03:28:04;;;;;;;13.33;7.37;;;;;;;;;;5015004;28;20178;-74
2024/01/18 03:30:30;;;;;;;12.13;7.13;;;;;;;;;;5031676;28;20248;-74
2024/01/18 03:32:56;;;;;;;11.90;7.70;;;;;;;;;;5018649;28;20205;-74
2024/01/18 03:35:22;;;;;;;15.80;7.70;;;;;;;;;;5039149;28;20257;-75
2024/01/18 03:37:48;;;;;;;12.87;7.77;;;;;;;;;;5060854;28;20176;-74
2024/01/18 03:40:14;;;;;;;13.23;7.97;;;;;;;;;;5058584;28;20219;-75
2024/01/18 03:42:41;;;;;;;14.10;7.93;;;;;;;;;;5059268;28;20165;-75
2024/01/18 03:45:07;;;;;;;12.13;7.27;;;;;;;;;;5055027;28;20209;-75
2024/01/18 03:47:33;;;;;;;13.23;7.87;;;;;;;;;;5055184;28;20659;-75
2024/01/18 03:49:59;;;;;;;13.50;7.47;;;;;;;;;;5054831;28;20188;-75
2024/01/18 03:52:25;;;;;;;14.37;7.73;;;;;;;;;;5055181;28;20172;-75
2024/01/18 03:54:51;;;;;;;13.23;8.07;;;;;;;;;;5054988;28;20179;-75
2024/01/18 03:57:17;;;;;;;13.33;6.83;;;;;;;;;;5054794;28;20200;-75
2024/01/18 03:59:47;;;;;;;9.80;6.47;;;-4.00;99.90;;;;;;5054938;28;20183;-75
2024/01/18 04:02:13;;;;;;;15.60;7.97;;;;;;;;;;5054834;28;20300;-75
2024/01/18 04:04:39;;;;;;;11.07;7.30;;;;;;;;;;5055054;28;20209;-75
2024/01/18 04:07:05;;;;;;;15.00;8.30;;;;;;;;;;5055099;28;20169;-74
2024/01/18 04:09:31;;;;;;;14.80;8.07;;;;;;;;;;5055525;28;20223;-75
2024/01/18 04:11:57;;;;;;;14.00;8.17;;;;;;;;;;5055109;28;20627;-74
2024/01/18 04:14:23;;;;;;;13.83;7.53;;;;;;;;;;5054966;28;20268;-74
2024/01/18 04:16:49;;;;;;;16.10;7.53;;;;;;;;;;5037215;28;20192;-74
2024/01/18 04:19:16;;;;;;;13.83;7.50;;;;;;;;;;5055054;28;20546;-74
2024/01/18 04:21:43;;;;;;;13.63;7.50;;;-4.30;99.90;;;;;;5054843;28;20230;-74
2024/01/18 04:24:10;;;;;;;14.63;8.33;;;-4.30;99.90;;;;;;5036979;28;20546;-75
2024/01/18 04:26:36;;;;;;;16.40;7.97;;;;;;;;;;5054835;28;20177;-74
2024/01/18 04:29:02;;;;;;;17.77;7.77;;;;;;;;;;5054992;28;20193;-74
2024/01/18 04:31:28;;;;;;;15.10;7.90;;;;;;;;;;5054582;28;20177;-75
2024/01/18 04:33:55;;;;;;;11.40;7.47;;;-4.40;99.90;;;;;;5054550;28;20173;-74
2024/01/18 04:36:21;;;;;;;13.83;7.53;;;;;;;;;;5036489;28;20173;-74
2024/01/18 04:38:47;;;;;;;11.43;6.87;;;;;;;;;;5054283;28;20571;-74
2024/01/18 04:41:15;;;;;;;13.90;6.77;;;;;;;;;;5054285;28;20199;-74
2024/01/18 04:43:41;;;;;;;11.67;6.27;;;;;;;;;;5054577;28;20243;-74
2024/01/18 04:46:09;;;;;;;9.83;6.50;;;;;;;;;;5054264;28;20647;-74
2024/01/18 04:48:36;;;;;;;11.07;6.60;;;;;;;;;;5054258;28;20204;-74
2024/01/18 04:51:03;;;;;;;12.93;7.23;;;;;;;;;;5054057;28;20223;-73
2024/01/18 04:53:29;;;;;;;15.63;7.67;;;;;;;;;;5054035;28;20284;-73
2024/01/18 04:55:55;;;;;;;12.07;7.33;;;;;;;;;;5053876;28;20185;-73
2024/01/18 04:58:22;;;;;;;14.37;7.13;;;;;;;;;;5054447;28;20189;-73
2024/01/18 05:00:48;;;;;;;11.17;6.93;;;;;;;;;;5054424;28;20264;-72
2024/01/18 05:03:14;;;;;;;15.50;7.47;;;;;;;;;;5053792;28;20259;-73
2024/01/18 05:05:41;;;;;;;12.13;7.20;;;;;;;;;;5053705;28;20209;-73
2024/01/18 05:08:07;;;;;;;11.10;6.83;;;;;;;;;;5053806;28;20193;-73
2024/01/18 05:10:33;;;;;;;12.87;7.80;;;;;;;;;;5053847;28;20201;-72
2024/01/18 05:12:59;;;;;;;11.57;6.57;;;;;;;;;;5053743;28;20250;-73
2024/01/18 05:15:26;;;;;;;13.27;8.00;;;;;;;;;;5053565;28;20176;-74
2024/01/18 05:17:54;;;;;;;12.17;7.23;;;;;;;;;;5053533;28;20180;-74
2024/01/18 05:20:20;;;;;;;13.27;7.77;;;;;;;;;;5053623;28;20231;-74
2024/01/18 05:22:46;;;;;;;14.03;6.97;;;;;;;;;;5053447;28;20178;-74
2024/01/18 05:25:13;;;;;;;11.30;7.07;;;;;;;;;;5035329;28;20215;-73
2024/01/18 05:27:40;;;;;;;11.87;7.00;;;-4.60;99.90;;;;;;5053501;28;20177;-74
2024/01/18 05:30:07;;;;;;;14.03;6.97;;;;;;;;;;5053328;28;20173;-74
2024/01/18 05:32:33;;;;;;;10.93;6.43;;;;;;;;;;5045480;28;20664;-73
2024/01/18 05:35:04;;;;;;;13.77;6.83;;;;;;;;;;5047579;28;20184;-73
2024/01/18 05:37:30;;;;;;;10.03;7.10;;;;;;;;;;5051202;28;20181;-73
2024/01/18 05:39:56;;;;;;;10.93;6.83;;;;;;;;;;5033151;28;20176;-73
2024/01/18 05:42:23;;;;;;;11.47;6.90;;;;;;;;;;5033148;28;20186;-73
2024/01/18 05:44:49;;;;;;;11.43;7.00;;;;;;;;;;5032928;28;20228;-73
2024/01/18 05:47:15;;;;;;;30.43;9.33;;;;;;;;;;5033256;28;20684;-73
2024/01/18 05:49:41;;;;;;;11.03;6.53;;;;;;;;;;5034498;28;20261;-73
2024/01/18 05:52:08;;;;;;;10.40;7.27;;;;;;;;;;5052784;28;20655;-73
2024/01/18 05:54:34;;;;;;;11.63;7.67;;;;;;;;;;5052671;28;20170;-73
2024/01/18 05:57:01;;;;;;;12.33;7.27;;;;;;;;;;5057862;28;20192;-73
2024/01/18 05:59:28;;;;;;;11.87;7.20;;;;;;;;;;5053201;28;20177;-73
2024/01/18 06:01:54;;;;;;;14.40;6.67;;;;;;;;;;5052534;28;20684;-73
2024/01/18 06:04:20;;;;;;;10.30;6.83;;;;;;;;;;5052680;28;20216;-73
2024/01/18 06:06:46;;;;;;;9.17;6.43;;;;;;;;;;5034599;28;20176;-73
2024/01/18 06:09:16;;;;;;;12.10;7.57;;;;;;;;;;5052594;28;20183;-73
2024/01/18 06:11:42;;;;;;;14.33;7.47;;;;;;;;;;5052672;28;20207;-73
2024/01/18 06:14:08;;;;;;;11.97;7.33;;;;;;;;;;5052509;28;20269;-73
2024/01/18 06:16:34;;;;;;;11.73;6.97;;;;;;;;;;5052543;28;20219;-73
2024/01/18 06:19:00;;;;;;;12.10;7.20;;;;;;;;;;5052486;28;20173;-73
2024/01/18 06:21:26;;;;;;;10.50;6.73;;;;;;;;;;5021882;28;20272;-73
2024/01/18 06:23:52;;;;;;;11.23;6.77;;;;;;;;;;5038148;28;20581;-73
2024/01/18 06:26:18;;;;;;;15.87;7.27;;;;;;;;;;5034178;28;20216;-74
2024/01/18 06:28:45;;;;;;;10.63;6.87;;;;;;;;;;5017003;28;20197;-73
2024/01/18 06:31:11;;;;;;;10.90;7.13;;;;;;;;;;5034044;28;20243;-73
2024/01/18 06:33:37;;;;;;;17.53;7.03;;;;;;;;;;5052455;28;20172;-73
2024/01/18 06:36:03;;;;;;;10.37;6.13;;;;;;;;;;5052780;28;20181;-73
2024/01/18 06:38:29;;;;;;;13.87;7.27;;;;;;;;;;5052032;28;20177;-74
2024/01/18 06:40:58;;;;;;;11.27;7.13;;;;;;;;;;5052150;28;20212;-74
2024/01/18 06:43:25;;;;;;;13.60;7.33;;;;;;;;;;5034406;28;20227;-74
2024/01/18 06:45:54;;;;;;;12.43;7.00;;;;;;;;;;5052009;28;20244;-73
2024/01/18 06:48:23;;;;;;;12.93;6.70;;;-4.70;99.90;;;;;;5052118;28;20169;-73
2024/01/18 06:50:49;;;;;;;12.07;7.03;;;;;;;;;;5053485;28;20169;-73
2024/01/18 06:53:15;;;;;;;18.07;7.90;;;;;;;;;;5053020;28;20185;-73
2024/01/18 06:55:41;;;;;;;8.50;6.40;;;;;;;;;;5051968;28;20243;-73
2024/01/18 06:58:07;;;;;;;14.97;6.90;;;;;;;;;;5051945;28;20177;-73
2024/01/18 07:00:33;;;;;;;10.60;6.90;;;;;;;;;;5051759;28;20169;-73
2024/01/18 07:03:00;;;;;;;9.23;6.17;;;;;;;;;;5050946;28;20250;-73
2024/01/18 07:05:26;;;;;;;13.40;6.50;;;;;;;;;;5051663;28;20220;-73
2024/01/18 07:07:52;;;;;;;10.80;7.20;;;;;;;;;;5034149;28;20178;-73
2024/01/18 07:10:18;;;;;;;12.80;7.33;;;;;;;;;;5038072;28;20269;-73
2024/01/18 07:12:45;;;;;;;12.17;7.27;;;;;;;;;;5054836;28;20285;-73
2024/01/18 07:15:11;;;;;;;11.40;6.17;;;;;;;;;;5052139;28;20181;-73
2024/01/18 07:17:37;;;;;;;11.70;6.57;;;;;;;;;;5051550;28;20251;-72
2024/01/18 07:20:04;;;;;;;13.30;6.43;;;-4.70;99.90;;;;;;5051570;28;20185;-73
2024/01/18 07:22:30;;;;;;;9.37;6.37;;;;;;;;;;5051502;28;20176;-72
2024/01/18 07:24:56;;;;;;;16.40;7.13;;;;;;;;;;5051480;28;20205;-73
2024/01/18 07:27:22;;;;;;;11.63;6.40;;;;;;;;;;5051450;28;20207;-73
2024/01/18 07:29:49;;;;;;;10.00;6.73;;;-4.70;99.90;;;;;;5050915;28;20207;-73
2024/01/18 07:32:16;;;;;;;11.20;6.53;;;;;;;;;;5051290;28;20226;-72
2024/01/18 07:34:42;;;;;;;10.27;6.93;;;;;;;;;;5054031;28;20651;-73
2024/01/18 07:37:12;;;;;;;13.33;7.90;;;;;;;;;;5051930;28;20173;-73
2024/01/18 07:39:38;;;;;;;13.37;7.23;;;;;;;;;;5052000;28;20165;-73
2024/01/18 07:42:04;;;;;;;9.67;7.00;;;;;;;;;;5051454;28;20180;-74
2024/01/18 07:44:30;;;;;;;10.47;6.50;;;;;;;;;;5051466;28;20569;-74
2024/01/18 07:46:56;;;;;;;10.00;6.70;;;;;;;;;;5050852;28;20185;-74
2024/01/18 07:49:22;;;;;;;12.47;7.10;;;;;;;;;;5050898;28;20177;-73
2024/01/18 07:51:49;;;;;;;12.30;7.37;;;-4.40;99.90;;;;;;5051187;28;20200;-73
2024/01/18 07:54:15;;;;;;;13.10;6.70;;;;;;;;;;5050912;28;20184;-72
2024/01/18 07:56:42;;;;;;;9.90;7.20;;;;;;;;;;5033224;28;20218;-73
2024/01/18 07:59:08;;;;;;;14.17;6.97;;;;;;;;;;5033243;28;20180;-73
2024/01/18 08:01:34;;;;;;;10.97;6.90;;;;;;;;;;5048677;28;20252;-72
2024/01/18 08:04:00;;;;;;;12.47;6.97;;;;;;;;;;5039739;28;20199;-73
2024/01/18 08:06:26;;;;;;;10.87;7.07;;;;;;;;;;5050811;28;20181;-73
2024/01/18 08:08:52;;;;;;;12.23;7.43;;;;;;;;;;5050825;28;20192;-73
2024/01/18 08:11:18;;;;;;;11.53;7.77;;;;;;;;;;5050964;28;20193;-72
2024/01/18 08:13:44;;;;;;;11.97;7.63;;;;;;;;;;5053329;28;20177;-72
2024/01/18 08:16:11;;;;;;;11.17;7.83;;;;;;;;;;5055760;28;20176;-71
2024/01/18 08:18:37;;;;;;;13.70;7.63;;;;;;;;;;5050135;28;20685;-72
2024/01/18 08:21:03;;;;;;;14.57;7.70;;;-3.90;99.90;;;;;;5050975;28;20296;-73
2024/01/18 08:23:30;;;;;;;17.67;8.33;;;;;;;;;;5052890;28;20180;-72
2024/01/18 08:25:56;;;;;;;15.43;8.20;;;;;;;;;;5054457;28;20205;-72
2024/01/18 08:28:22;;;;;;;12.97;7.80;;;;;;;;;;5053702;28;20177;-72
2024/01/18 08:30:48;;;;;;;13.83;8.20;;;;;;;;;;5050203;28;20181;-72
2024/01/18 08:33:15;;;;;;;12.90;7.63;;;;;;;;;;5054410;28;20248;-73
2024/01/18 08:35:41;;;;;;;11.77;7.30;;;;;;;;;;5036014;28;20272;-73
2024/01/18 08:38:08;;;;;;;11.57;7.70;;;;;;;;;;5053472;28;20238;-73
2024/01/18 08:40:34;;;;;;;11.00;7.73;;;;;;;;;;5056137;28;20177;-72
2024/01/18 08:43:00;;;;;;;12.57;8.03;;;;;;;;;;5056118;28;20177;-73
2024/01/18 08:45:27;;;;;;;13.27;8.67;;;;;;;;;;5056114;28;20235;-73
2024/01/18 08:47:53;;;;;;;12.10;8.57;;;;;;;;;;5054361;28;20169;-72
2024/01/18 08:50:20;;;;;;;15.33;9.80;;;;;;;;;;5054271;28;20644;-72
2024/01/18 08:52:46;;;;;;;21.63;9.83;;;;;;;;;;5054249;28;20260;-72
2024/01/18 08:55:13;;;;;;;18.57;9.63;;;;;;;;;;5053994;28;20173;-73
2024/01/18 08:57:39;;;;;;;13.43;8.77;;;;;;;;;;5054008;28;20251;-74
2024/01/18 09:00:06;;;;;;;20.70;9.23;;;;;;;;;;5053535;28;20238;-73
2024/01/18 09:02:32;;;;;;;16.03;9.30;;;;;;;;;;5053697;28;20231;-74
2024/01/18 09:04:58;;;;;;;13.73;8.53;;;;;;;;;;5053847;28;20223;-73
2024/01/18 09:07:25;;;;;;;13.33;9.20;;;;;;;;;;5035365;28;20643;-73
2024/01/18 09:09:51;;;;;;;11.23;8.07;;;;;;;;;;5049285;28;20173;-73
2024/01/18 09:12:17;;;;;;;12.90;8.30;;;;;;;;;;5036724;28;20764;-73
2024/01/18 09:14:44;;;;;;;13.13;8.10;;;;;;;;;;5036127;28;20212;-74
2024/01/18 09:17:10;;;;;;;14.90;8.13;;;;;;;;;;5045973;28;20209;-73
2024/01/18 09:19:36;;;;;;;11.67;7.30;;;;;;;;;;5032622;28;20189;-73
2024/01/18 09:22:02;;;;;;;14.23;6.53;;;;;;;;;;5030987;28;20166;-74
2024/01/18 09:24:28;;;;;;;8.53;6.13;;;;;;;;;;5031105;28;20260;-73
2024/01/18 09:26:54;;;;;;;17.07;6.80;;;;;;;;;;5030944;28;20552;-73
2024/01/18 09:29:20;;;;;;;14.77;6.97;;;;;;;;;;5031001;28;20169;-73
2024/01/18 09:31:47;;;;;;;12.93;7.07;;;;;;;;;;5031264;28;20212;-74
2024/01/18 09:34:13;;;;;;;10.53;6.07;;;;;;;;;;5030328;28;20174;-74
2024/01/18 09:36:40;;;;;;;16.20;6.53;;;;;;;;;;5014709;28;20170;-74
2024/01/18 09:39:15;;;;;;;16.30;6.43;;;;;;;;;;5032925;28;20178;-74
2024/01/18 09:41:42;;;;;;;13.43;6.03;;;;;;;;;;5032754;28;20173;-74
2024/01/18 09:44:12;;;;;;;14.53;6.43;;;;;;;;;;5033081;28;20244;-76
2024/01/18 09:46:38;;;;;;;11.73;6.30;;;;;;;;;;5039890;28;20179;-76
2024/01/18 09:49:07;;;;;;;13.57;6.87;;;;;;;;;;5053095;28;20682;-75
2024/01/18 09:51:33;;;;;;;14.33;6.60;;;;;;;;;;5052519;28;20248;-73
2024/01/18 09:54:00;;;;;;;9.40;5.80;;;;;;;;;;5052589;28;20205;-73
2024/01/18 09:56:31;;;;;;;11.10;6.40;;;2.30;99.90;;;;;;5052380;28;20169;-73
2024/01/18 09:58:59;;;;;;;12.30;5.80;;;;;;;;;;5052525;28;20188;-76
2024/01/18 10:01:25;;;;;;;11.70;6.30;;;;;;;;;;5052448;28;20173;-73
2024/01/18 10:03:51;;;;;;;17.90;6.80;;;;;;;;;;5052329;28;20263;-75
2024/01/18 10:06:18;;;;;;;11.20;5.63;;;;;;;;;;5052826;28;20685;-74
2024/01/18 10:08:48;;;;;;;12.50;6.67;;;1.40;99.90;;;;;;5034731;28;20694;-77
2024/01/18 10:11:14;;;;;;;14.60;6.40;;;;;;;;;;5052655;28;20268;-73
2024/01/18 10:13:49;;;;;;;13.00;6.47;;;1.50;99.90;;;;;;5054357;28;20280;-73
2024/01/18 10:16:35;;;;;;;25.83;7.17;;;1.60;99.90;;;;;;5052424;28;20183;-74
2024/01/18 10:19:03;;;;;;;12.03;4.77;;;;;;;;;;5054002;28;20187;-78
2024/01/18 10:21:29;;;;;;;14.77;4.57;;;;;;;;;;5056137;28;20215;-77
2024/01/18 10:23:55;;;;;;;8.53;3.77;;;;;;;;;;5037440;28;20174;-77
2024/01/18 10:26:22;;;;;;;7.80;3.70;;;;;;;;;;5054886;28;20221;-77
2024/01/18 10:28:48;;;;;;;7.80;3.07;;;;;;;;;;5054080;28;20200;-75
2024/01/18 10:31:14;;;;;;;8.37;2.50;;;;;;;;;;5053377;28;20212;-76
2024/01/18 10:33:41;;;;;;;3.37;1.70;;;;;;;;;;5040945;28;20178;-77
2024/01/18 10:36:07;;;;;;;9.80;1.87;;;;;;;;;;5037513;28;20183;-77
2024/01/18 10:38:34;;;;;;;2.97;1.90;;;;;;;;;;5046676;28;20538;-77
2024/01/18 10:41:00;;;;;;;8.13;2.67;;;;;;;;;;5036122;28;20184;-77
2024/01/18 10:43:34;;;;;;;5.33;2.47;;;;;;;;;;5035181;28;20186;-77
2024/01/18 10:46:00;;;;;;;3.57;1.50;;;;;;;;;;5035274;28;20248;-78
2024/01/18 10:48:26;;;;;;;1.73;1.30;;;;;;;;;;5034038;28;20170;-76
2024/01/18 10:50:55;;;;;;;6.87;1.60;;;3.80;99.90;;;;;;5044969;28;20177;-79
2024/01/18 10:53:33;;;;;;;16.90;2.10;;;4.50;99.90;;;;;;5053988;28;20648;-76
2024/01/18 10:56:01;;;;;;;56.50;3.47;;;5.50;99.90;;;;;;5052326;28;20534;-77
2024/01/18 10:58:27;;;;;;;41.97;4.03;;;;;;;;;;5054506;28;20703;-77
2024/01/18 11:00:54;;;;;;;30.03;2.80;;;;;;;;;;5063228;28;20169;-77
2024/01/18 11:03:21;;;;;;;27.40;2.70;;;;;;;;;;5057368;28;20213;-78
2024/01/18 11:05:48;;;;;;;28.93;2.33;;;6.90;99.90;;;;;;5054512;28;20710;-76
2024/01/18 11:08:14;;;;;;;12.70;2.10;;;;;;;;;;5050941;28;20173;-77
2024/01/18 11:10:41;;;;;;;5.43;1.83;;;11.50;99.90;;;;;;5051667;28;20253;-73
2024/01/18 11:13:10;;;;;;;63.70;4.85;;;8.20;99.90;;;;;;5050438;28;20406;-74
2024/01/18 11:15:37;;;;;;;41.77;3.43;;;;;;;;;;5051047;28;20243;-74
2024/01/18 11:18:13;;;;;;;27.70;2.77;;;8.30;99.90;;;;;;5051032;28;20170;-73
2024/01/18 11:20:57;;;;;;;13.87;2.10;;;8.30;99.90;;;;;;5051029;28;20184;-73
2024/01/18 11:23:26;;;;;;;4.60;1.40;;;9.10;99.90;;;;;;5046504;28;20647;-73
2024/01/18 11:25:52;;;;;;;4.63;1.30;;;;;;;;;;5042719;28;20756;-74
2024/01/18 11:28:22;;;;;;;6.20;1.43;;;9.30;99.90;;;;;;5050934;28;20666;-73
2024/01/18 11:30:48;;;;;;;7.83;1.80;;;;;;;;;;5031481;28;20217;-74
2024/01/18 11:33:14;;;;;;;5.90;2.03;;;;;;;;;;5030743;28;20223;-73
2024/01/18 11:35:41;;;;;;;7.27;1.40;;;;;;;;;;5035644;28;20281;-77
2024/01/18 11:38:32;;;;;;;8.70;1.70;;;12.10;99.90;;;;;;5050638;28;20177;-76
2024/01/18 11:41:04;;;;;;;8.60;1.45;;;;;;;;;;5040852;28;20240;-76
2024/01/18 11:43:48;;;;;;;6.30;1.00;;;;;;;;;;5050578;28;20636;-74
2024/01/18 11:46:14;;;;;;;16.80;1.52;;;;;;;;;;5050631;28;20275;-74
2024/01/18 11:48:40;;;;;;;5.25;1.70;;;;;;;;;;5050773;28;20695;-74
2024/01/18 11:51:06;;;;;;;4.00;1.40;;;;;;;;;;5050695;28;20248;-74
2024/01/18 11:53:32;;;;;;;10.40;1.63;;;;;;;;;;5050533;28;20216;-75
2024/01/18 11:55:59;;;;;;;12.18;1.85;;;;;;;;;;5050575;28;20222;-75
2024/01/18 11:58:25;;;;;;;184.30;11.50;;;;;;;;;;5053497;28;20169;-76
2024/01/18 12:00:51;;;;;;;75.07;4.47;;;;;;;;;;5054525;28;20256;-75
2024/01/18 12:03:17;;;;;;;24.58;2.20;;;;;;;;;;5054397;28;20304;-75
2024/01/18 12:05:47;;;;;;;11.65;1.40;;;18.40;99.90;;;;;;5036594;28;20239;-73
2024/01/18 12:08:14;;;;;;;5.32;1.10;;;;;;;;;;5054625;28;20173;-73
2024/01/18 12:10:41;;;;;;;6.20;1.33;;;;;;;;;;5054429;28;20249;-73
2024/01/18 12:13:07;;;;;;;8.15;1.13;;;;;;;;;;5054480;28;20166;-73
2024/01/18 12:15:33;;;;;;;11.25;1.88;;;;;;;;;;5054189;28;20169;-73
2024/01/18 12:17:59;;;;;;;7.85;1.65;;;;;;;;;;5054177;28;20165;-73
2024/01/18 12:20:26;;;;;;;13.27;2.03;;;;;;;;;;5054564;28;20173;-72
2024/01/18 12:22:52;;;;;;;14.45;2.40;;;;;;;;;;5054346;28;20635;-73
2024/01/18 12:25:18;;;;;;;13.27;2.10;;;;;;;;;;5054247;28;20217;-77
2024/01/18 12:27:44;;;;;;;9.50;1.77;;;;;;;;;;5054081;28;20169;-76
2024/01/18 12:30:10;;;;;;;7.40;1.45;;;21.70;99.90;;;;;;5042447;28;20189;-76
2024/01/18 12:32:36;;;;;;;8.50;1.42;;;;;;;;;;5034194;28;20257;-76
2024/01/18 12:35:03;;;;;;;14.82;2.20;;;;;;;;;;5034051;28;20173;-76
2024/01/18 12:37:29;;;;;;;3.42;1.10;;;14.20;99.90;;;;;;5034116;28;20172;-76
2024/01/18 12:39:55;;;;;;;6.03;1.20;;;;;;;;;;5033968;28;20170;-77
2024/01/18 12:42:21;;;;;;;13.68;1.58;;;13.80;99.90;;;;;;5033739;28;20259;-75
2024/01/18 12:44:53;;;;;;;11.95;1.40;;;13.00;99.90;;;;;;5036596;28;20661;-76
2024/01/18 12:47:19;;;;;;;5.25;1.60;;;;;;;;;;5043291;28;20162;-76
2024/01/18 12:49:45;;;;;;;7.82;1.33;;;;;;;;;;5023811;28;20178;-76
2024/01/18 12:52:14;;;;;;;10.32;1.55;;;16.20;99.90;;;;;;5043311;28;20659;-76
2024/01/18 12:54:42;;;;;;;11.70;1.50;;;;;;;;;;5044176;28;20252;-75
2024/01/18 12:57:09;;;;;;;6.45;1.50;;;14.60;99.90;;;;;;5042712;28;20565;-75
2024/01/18 12:59:35;;;;;;;7.68;1.30;;;15.90;99.90;;;;;;5034204;28;20520;-75
2024/01/18 13:02:01;;;;;;;15.45;1.70;;;;;;;;;;5033381;28;20213;-76
2024/01/18 13:04:31;;;;;;;10.77;1.55;;;17.70;99.90;;;;;;5033527;28;20574;-76
2024/01/18 13:06:58;;;;;;;11.20;1.77;;;18.90;99.90;;;;;;5034159;28;20189;-76
2024/01/18 13:09:27;;;;;;;7.90;1.30;;;19.60;99.90;;;;;;5046051;28;20183;-76
2024/01/18 13:11:54;;;;;;;10.75;2.03;;;18.70;99.90;;;;;;5052468;28;20173;-76
2024/01/18 13:14:20;;;;;;;12.02;1.88;;;;;;;;;;5053288;28;20181;-76
2024/01/18 13:16:47;;;;;;;10.35;1.60;;;17.00;99.90;;;;;;5053255;28;20181;-75
2024/01/18 13:19:20;;;;;;;6.30;1.42;;;18.30;99.90;;;;;;5053705;28;20166;-77
2024/01/18 13:21:46;;;;;;;4.38;1.50;;;;;;;;;;5052854;28;20638;-76
2024/01/18 13:24:13;;;;;;;7.68;2.55;;;;;;;;;;5027962;28;20210;-77
2024/01/18 13:26:40;;;;;;;7.85;1.17;;;19.40;99.90;;;;;;5044788;28;20311;-76
2024/01/18 13:29:07;;;;;;;11.38;1.17;;;19.30;99.90;;;;;;5050544;28;20177;-77
2024/01/18 13:31:34;;;;;;;15.57;1.70;;;18.60;99.90;;;;;;5052829;28;20289;-77
2024/01/18 13:34:01;;;;;;;7.15;1.45;;;;;;;;;;5051406;28;20739;-77
2024/01/18 13:36:27;;;;;;;4.53;1.08;;;;;;;;;;5048354;28;20173;-76
2024/01/18 13:38:53;;;;;;;11.73;1.45;;;;;;;;;;5041129;28;20203;-77
2024/01/18 13:41:19;;;;;;;16.90;1.80;;;;;;;;;;5025393;28;20659;-77
2024/01/18 13:43:45;;;;;;;11.40;1.60;;;16.40;99.90;;;;;;5029433;28;20180;-78
2024/01/18 13:46:11;;;;;;;5.05;1.27;;;;;;;;;;5052032;28;20570;-78
2024/01/18 13:48:37;;;;;;;5.60;1.00;;;;;;;;;;5033778;28;20197;-78
2024/01/18 13:51:03;;;;;;;5.68;1.05;;;14.20;99.90;;;;;;5052533;28;20252;-78
2024/01/18 13:53:29;;;;;;;3.13;0.90;;;15.40;99.90;;;;;;5052318;28;20260;-78
2024/01/18 13:55:55;;;;;;;8.65;1.20;;;;;;;;;;5043088;28;20236;-78
2024/01/18 13:58:22;;;;;;;4.43;0.88;;;;;;;;;;5043191;28;20208;-78
2024/01/18 14:00:49;;;;;;;3.85;0.90;;;16.20;99.90;;;;;;5031932;28;20173;-78
2024/01/18 14:03:15;;;;;;;7.30;1.17;;;;;;;;;;5046975;28;20228;-78
2024/01/18 14:05:44;;;;;;;7.38;1.35;;;18.30;99.90;;;;;;5051982;28;20288;-77
2024/01/18 14:08:10;;;;;;;4.85;0.90;;;;;;;;;;5050191;28;20662;-79